West Melbourne, Florida
Current Conditions -  °F | °C
As of 7:53 PM on Friday 24 Oct 2014 (Local Time) from KMLB Reporting Station
Overcast Overcast  
Wind Chill: 75°   Ceiling: 4500
Heat Index: 75°   Visibility: 10mi
Dew Point: 57°   Wind: 9mph
Humidity: 53%   Direction: 30°NNE
Pressure: 29.91"   Gusts: NA
Location:  28.0786°N, 80.6027°W
Report Text: KMLB 242353Z 03008KT 10SM OVC045 24/14 A2991 RMK AO2 SLP128 T02390139 10272 20239 53004
Loading
Personal Weather Stations






























Interactive Weather Map
Tropical Storm Tracking
New forecast layout! Learn more

10-Day Weather Forecast

Advertisements
Track Severe Weather on mobile